Flight Track Log - Related Links

Times and Time Zones

All times are in EDT time to prevent confusion due to time zone crossing. See the JBU56 flight status page for this flight to view local times or setup timezone preferences in your user account.

Time Position Orientation Groundspeed Altitude Reporting Facility
EDT Latitude Longitude Course Direction KTS MPH feet Rate Location/Type
Fri 08:33:25 AM 39.0333 -77.5000 90° East 243 280 4,900  Level Potomac TRACON
Fri 08:34:25 AM 39.0833 -77.4333 46° Northeast 298 343 7,900 2,011 Climbing Potomac TRACON
Fri 08:35:00 AM 39.0323 -76.9388 77° East  Level FlightAware Approximate
Fri 08:36:00 AM 39.0547 -76.8053 78° East  Level FlightAware Approximate
Fri 08:36:21 AM 39.1539 -77.2617 62° Northeast 302 348 10,800  Level Washington Center
Fri 08:37:00 AM 39.0667 -76.6704 90° East  Level FlightAware Approximate
Fri 08:37:22 AM 39.1075 -77.1458 117° Southeast 292 336 12,300  Level Washington Center
Fri 08:38:23 AM 39.0653 -77.0244 114° Southeast 325 374 15,000 2,420 Climbing Washington Center
Fri 08:39:21 AM 39.0669 -76.8750 89° East 360 414 17,100 2,168 Climbing Washington Center
Fri 08:40:22 AM 39.0892 -76.7389 78° East 377 434 19,300 2,066 Climbing Washington Center
Fri 08:41:23 AM 39.1094 -76.5867 80° East 403 464 21,300 1,934 Climbing Washington Center
Fri 08:42:23 AM 39.1272 -76.4292 82° East 423 487 23,200 1,729 Climbing Washington Center
Fri 08:43:21 AM 39.1886 -76.2878 61° Northeast 434 499 24,700 1,627 Climbing Washington Center
Fri 08:44:21 AM 39.2725 -76.1492 52° Northeast 450 518 26,400 1,537 Climbing Washington Center
Fri 08:45:22 AM 39.3544 -76.0103 53° Northeast 471 542 27,800 1,240 Climbing Washington Center
Fri 08:46:22 AM 39.4319 -75.8711 54° Northeast 484 557 28,900 595 Climbing Washington Center
Fri 08:47:23 AM 39.5178 -75.7233 53° Northeast 495 570 29,000 50 Climbing Washington Center
Fri 08:48:21 AM 39.6011 -75.5781 53° Northeast 495 570 29,000  Level Washington Center
Fri 08:49:22 AM 39.6822 -75.4297 55° Northeast 500 575 29,000  Level Washington Center
Fri 08:50:24 AM 39.7731 -75.2761 52° Northeast 492 566 29,000  Level New York Center
Fri 08:51:24 AM 39.8606 -75.1114 55° Northeast 492 566 29,000  Level New York Center
Fri 08:52:24 AM 39.9450 -74.9678 52° Northeast 500 575 29,000  Level New York Center
Fri 08:53:24 AM 40.0311 -74.8292 51° Northeast 499 574 29,000  Level New York Center
Fri 08:54:24 AM 40.1194 -74.6850 51° Northeast 499 574 29,000  Level New York Center
Fri 08:55:24 AM 40.2053 -74.5431 52° Northeast 499 574 29,000  Level New York Center
Fri 08:56:24 AM 40.2933 -74.3983 51° Northeast 499 574 29,000  Level New York Center
Fri 08:57:24 AM 40.3789 -74.2556 52° Northeast 499 574 29,000 -467 Level New York Center
Fri 08:59:11 AM 40.5328 -73.9997 52° Northeast 502 578 27,700 -714 Descending Boston Center
Fri 09:00:12 AM 40.6161 -73.8592 52° Northeast 490 564 27,000 -344 Descending Boston Center
Fri 09:01:13 AM 40.6986 -73.7178 52° Northeast 489 563 27,000  Level Boston Center
Fri 09:02:14 AM 40.7822 -73.5764 52° Northeast 489 563 27,000 -246 Level Boston Center
Fri 09:03:15 AM 40.8661 -73.4356 52° Northeast 489 563 26,500 -1,131 Descending Boston Center
Fri 09:04:16 AM 40.9569 -73.3008 48° Northeast 473 544 24,700 -1,672 Descending Boston Center
Fri 09:05:17 AM 41.0386 -73.1758 49° Northeast 454 522 23,100 -836 Descending Boston Center
Fri 09:06:18 AM 41.1142 -73.0500 51° Northeast 443 510 23,000 -49 Descending Boston Center
Fri 09:07:19 AM 41.1714 -72.9067 62° Northeast 442 509 23,000  Level Boston Center
Fri 09:08:20 AM 41.2261 -72.7611 63° Northeast 442 509 23,000  Level Boston Center
Fri 09:09:21 AM 41.2825 -72.6119 63° Northeast 442 509 23,000  Level Boston Center
Fri 09:10:22 AM 41.3378 -72.4647 63° Northeast 442 509 23,000 -197 Level Boston Center
Fri 09:11:23 AM 41.3942 -72.3164 63° Northeast 446 513 22,600 -1,131 Descending Boston Center
Fri 09:12:24 AM 41.4486 -72.1717 63° Northeast 443 510 20,700 -1,951 Descending Boston Center
Fri 09:13:26 AM 41.5081 -72.0156 63° Northeast 419 482 18,600 -1,659 Descending Boston Center
Fri 09:14:27 AM 41.5583 -71.8819 63° Northeast 406 467 17,300 -1,770 Descending Boston Center
Fri 09:15:28 AM 41.6092 -71.7433 64° Northeast 389 448 15,000 -1,918 Descending Boston Center
Fri 09:16:29 AM 41.6539 -71.6206 64° Northeast 377 434 13,400 -1,574 Descending Boston Center
Fri 09:17:30 AM 41.6992 -71.4994 63° Northeast 342 394 11,800 -1,180 Descending Boston Center
Fri 09:18:31 AM 41.7422 -71.3964 61° Northeast 320 368 11,000 -393 Descending Boston Center
Fri 09:19:32 AM 41.7906 -71.3025 55° Northeast 308 354 11,000  Level Boston Center
Fri 09:20:33 AM 41.8569 -71.2478 32° Northeast 277 319 11,000 -634 Level Boston Center
Fri 09:21:35 AM 41.9292 -71.2147 19° North 258 297 9,700 -1,415 Descending Boston Center
Fri 09:22:36 AM 41.9931 -71.1847 19° North 248 285 8,100 -1,525 Descending Boston Center
Fri 09:23:37 AM 42.0561 -71.1550 19° North 242 278 6,600 -1,377 Descending Boston Center
Fri 09:24:38 AM 42.1164 -71.1258 20° North 234 269 5,300 -1,328 Descending Boston Center
Fri 09:25:39 AM 42.1772 -71.0958 20° North 218 251 3,900 -1,230 Descending Boston Center
Fri 09:26:40 AM 42.2308 -71.0706 19° North 200 230 2,800 -1,073 Descending Boston Center
Fri 09:27:42 AM 42.2797 -71.0472 19° North 189 217 1,700 -927 Descending Boston Center
Fri 09:28:43 AM 42.3136 -71.0311 19° North 155 178 900 -590 Descending Boston Center
Fri 09:29:44 AM 42.3525 -71.0117 20° North 142 163 500 -393 Descending Boston Center
Fri 09:31:00 AM 42.3500 -71.0000 North  Level FlightAware Approximate
Fri 09:38:00 AM 42.3630 -71.0064 North  Level Estimated

Login

Don't have an account? Register now (free) for customized features, flight alerts, and more!